N88 weather

Kecks Airport
Julian, North Carolina, United States

Public forecast

Using degrees Fahrenheit for public forecast. Weather courtesy of forecast.io.

METAR (pilot weather report)

Closest report is Burlington Alamance Regional Airport, 10.4 nm (19.3 km) NE. Retrieved 2019/07/15 18:54 UTC (20 minutes ago):

KBUY 151854Z AUTO VRB04KT 10SM BKN055 BKN075 OVC110 36/19 A3010 RMK AO2 SLP182 T03560189

TAF (pilot weather forecast)

Closest forecast is Piedmont Triad International Airport, 18.2 nm (33.8 km) NW. Retrieved 2019/07/15 18:33 UTC (41 minutes ago):

TAF KGSO 151731Z 1518/1618 03005KT P6SM FEW060 SCT250